Artesian, Iowa
Current Conditions -  °F | °C
As of 5:54 PM on Saturday 25 Oct 2014 (Local Time) from KALO Reporting Station
Clear Clear  
Wind Chill: 59°   Ceiling: Unl
Heat Index: 59°   Visibility: 10mi
Dew Point: 33°   Wind: 8mph
Humidity: 38%   Direction: 320°NW
Pressure: 30.04"   Gusts: NA
Location:  42.787°N, 92.4284°W
Report Text: KALO 252254Z 32007KT 10SM CLR 15/01 A3004 RMK AO2 SLP175 T01500006
Loading
Personal Weather Stations






























Interactive Weather Map
Tropical Storm Tracking
New forecast layout! Learn more

10-Day Weather Forecast

Advertisements
Track Severe Weather on mobile